sensor_id;sensor_type;location;lat;lon;timestamp;temperature;humidity
42245;DHT22;27912;51.828;5.688;2023-01-29T00:01:07;1.30;99.90
42245;DHT22;27912;51.828;5.688;2023-01-29T00:03:33;1.30;99.90
42245;DHT22;27912;51.828;5.688;2023-01-29T00:06:00;1.30;99.90
42245;DHT22;27912;51.828;5.688;2023-01-29T00:08:29;1.30;99.90
42245;DHT22;27912;51.828;5.688;2023-01-29T00:11:00;1.30;99.90
42245;DHT22;27912;51.828;5.688;2023-01-29T00:13:25;1.30;99.90
42245;DHT22;27912;51.828;5.688;2023-01-29T00:15:56;1.20;99.90
42245;DHT22;27912;51.828;5.688;2023-01-29T00:18:23;1.20;99.90
42245;DHT22;27912;51.828;5.688;2023-01-29T00:20:48;1.20;99.90
42245;DHT22;27912;51.828;5.688;2023-01-29T00:23:14;1.20;99.90
42245;DHT22;27912;51.828;5.688;2023-01-29T00:25:40;1.20;99.90
42245;DHT22;27912;51.828;5.688;2023-01-29T00:28:06;1.20;99.90
42245;DHT22;27912;51.828;5.688;2023-01-29T00:30:32;1.30;99.90
42245;DHT22;27912;51.828;5.688;2023-01-29T00:32:57;1.20;99.90
42245;DHT22;27912;51.828;5.688;2023-01-29T00:35:23;1.30;99.90
42245;DHT22;27912;51.828;5.688;2023-01-29T00:37:48;1.30;99.90
42245;DHT22;27912;51.828;5.688;2023-01-29T00:40:14;1.20;99.90
42245;DHT22;27912;51.828;5.688;2023-01-29T00:42:39;1.20;99.90
42245;DHT22;27912;51.828;5.688;2023-01-29T00:45:24;1.10;99.90
42245;DHT22;27912;51.828;5.688;2023-01-29T00:47:49;1.10;99.90
42245;DHT22;27912;51.828;5.688;2023-01-29T00:50:15;1.10;99.90
42245;DHT22;27912;51.828;5.688;2023-01-29T00:52:40;1.00;99.90
42245;DHT22;27912;51.828;5.688;2023-01-29T00:55:07;1.10;99.90
42245;DHT22;27912;51.828;5.688;2023-01-29T00:57:34;1.00;99.90
42245;DHT22;27912;51.828;5.688;2023-01-29T01:00:00;1.00;99.90
42245;DHT22;27912;51.828;5.688;2023-01-29T01:02:26;1.00;99.90
42245;DHT22;27912;51.828;5.688;2023-01-29T01:05:12;1.00;99.90
42245;DHT22;27912;51.828;5.688;2023-01-29T01:07:42;1.00;99.90
42245;DHT22;27912;51.828;5.688;2023-01-29T01:10:19;1.00;99.90
42245;DHT22;27912;51.828;5.688;2023-01-29T01:12:52;1.00;99.90
42245;DHT22;27912;51.828;5.688;2023-01-29T01:15:19;1.00;99.90
42245;DHT22;27912;51.828;5.688;2023-01-29T01:17:45;1.00;99.90
42245;DHT22;27912;51.828;5.688;2023-01-29T01:20:11;1.10;99.90
42245;DHT22;27912;51.828;5.688;2023-01-29T01:22:37;1.10;99.90
42245;DHT22;27912;51.828;5.688;2023-01-29T01:25:03;1.10;99.90
42245;DHT22;27912;51.828;5.688;2023-01-29T01:27:28;1.10;99.90
42245;DHT22;27912;51.828;5.688;2023-01-29T01:29:54;1.10;99.90
42245;DHT22;27912;51.828;5.688;2023-01-29T01:32:19;1.10;99.90
42245;DHT22;27912;51.828;5.688;2023-01-29T01:34:45;1.10;99.90
42245;DHT22;27912;51.828;5.688;2023-01-29T01:37:10;1.10;99.90
42245;DHT22;27912;51.828;5.688;2023-01-29T01:39:36;1.10;99.90
42245;DHT22;27912;51.828;5.688;2023-01-29T01:42:01;1.10;99.90
42245;DHT22;27912;51.828;5.688;2023-01-29T01:44:59;1.10;99.90
42245;DHT22;27912;51.828;5.688;2023-01-29T01:48:02;1.10;99.90
42245;DHT22;27912;51.828;5.688;2023-01-29T01:50:26;1.10;99.90
42245;DHT22;27912;51.828;5.688;2023-01-29T01:52:59;1.10;99.90
42245;DHT22;27912;51.828;5.688;2023-01-29T01:55:29;1.00;99.90
42245;DHT22;27912;51.828;5.688;2023-01-29T01:58:05;1.00;99.90
42245;DHT22;27912;51.828;5.688;2023-01-29T02:00:33;1.00;99.90
42245;DHT22;27912;51.828;5.688;2023-01-29T02:03:00;1.00;99.90
42245;DHT22;27912;51.828;5.688;2023-01-29T02:05:45;1.00;99.90
42245;DHT22;27912;51.828;5.688;2023-01-29T02:09:04;1.00;99.90
42245;DHT22;27912;51.828;5.688;2023-01-29T02:11:50;1.00;99.90
42245;DHT22;27912;51.828;5.688;2023-01-29T02:14:15;1.00;99.90
42245;DHT22;27912;51.828;5.688;2023-01-29T02:16:41;1.00;99.90
42245;DHT22;27912;51.828;5.688;2023-01-29T02:25:02;1.10;99.90
42245;DHT22;27912;51.828;5.688;2023-01-29T02:30:06;1.10;99.90
42245;DHT22;27912;51.828;5.688;2023-01-29T02:32:41;1.10;99.90
42245;DHT22;27912;51.828;5.688;2023-01-29T02:35:31;1.10;99.90
42245;DHT22;27912;51.828;5.688;2023-01-29T02:38:27;1.10;99.90
42245;DHT22;27912;51.828;5.688;2023-01-29T02:41:05;1.20;99.90
42245;DHT22;27912;51.828;5.688;2023-01-29T02:43:45;1.10;99.90
42245;DHT22;27912;51.828;5.688;2023-01-29T02:46:34;1.20;99.90
42245;DHT22;27912;51.828;5.688;2023-01-29T02:54:32;1.20;99.90
42245;DHT22;27912;51.828;5.688;2023-01-29T02:57:09;1.20;99.90
42245;DHT22;27912;51.828;5.688;2023-01-29T02:59:48;1.20;99.90
42245;DHT22;27912;51.828;5.688;2023-01-29T03:02:18;1.20;99.90
42245;DHT22;27912;51.828;5.688;2023-01-29T03:04:50;1.20;99.90
42245;DHT22;27912;51.828;5.688;2023-01-29T03:07:25;1.20;99.90
42245;DHT22;27912;51.828;5.688;2023-01-29T03:15:39;1.30;99.90
42245;DHT22;27912;51.828;5.688;2023-01-29T03:18:14;1.30;99.90
42245;DHT22;27912;51.828;5.688;2023-01-29T03:20:49;1.30;99.90
42245;DHT22;27912;51.828;5.688;2023-01-29T03:23:25;1.40;99.90
42245;DHT22;27912;51.828;5.688;2023-01-29T03:26:13;1.40;99.90
42245;DHT22;27912;51.828;5.688;2023-01-29T03:28:59;1.40;99.90
42245;DHT22;27912;51.828;5.688;2023-01-29T03:31:45;1.40;99.90
42245;DHT22;27912;51.828;5.688;2023-01-29T03:34:41;1.40;99.90
42245;DHT22;27912;51.828;5.688;2023-01-29T03:37:21;1.40;99.90
42245;DHT22;27912;51.828;5.688;2023-01-29T03:39:48;1.50;99.90
42245;DHT22;27912;51.828;5.688;2023-01-29T03:45:05;1.50;99.90
42245;DHT22;27912;51.828;5.688;2023-01-29T03:48:00;1.50;99.90
42245;DHT22;27912;51.828;5.688;2023-01-29T03:50:53;1.60;99.90
42245;DHT22;27912;51.828;5.688;2023-01-29T03:53:27;1.60;99.90
42245;DHT22;27912;51.828;5.688;2023-01-29T03:56:03;1.60;99.90
42245;DHT22;27912;51.828;5.688;2023-01-29T03:58:47;1.60;99.90
42245;DHT22;27912;51.828;5.688;2023-01-29T04:01:19;1.60;99.90
42245;DHT22;27912;51.828;5.688;2023-01-29T04:06:22;1.60;99.90
42245;DHT22;27912;51.828;5.688;2023-01-29T04:08:58;1.60;99.90
42245;DHT22;27912;51.828;5.688;2023-01-29T04:11:26;1.60;99.90
42245;DHT22;27912;51.828;5.688;2023-01-29T04:13:55;1.50;99.90
42245;DHT22;27912;51.828;5.688;2023-01-29T04:16:25;1.50;99.90
42245;DHT22;27912;51.828;5.688;2023-01-29T04:18:52;1.50;99.90
42245;DHT22;27912;51.828;5.688;2023-01-29T04:21:19;1.60;99.90
42245;DHT22;27912;51.828;5.688;2023-01-29T04:23:45;1.60;99.90
42245;DHT22;27912;51.828;5.688;2023-01-29T04:26:34;1.60;99.90
42245;DHT22;27912;51.828;5.688;2023-01-29T04:29:15;1.60;99.90
42245;DHT22;27912;51.828;5.688;2023-01-29T04:32:13;1.60;99.90
42245;DHT22;27912;51.828;5.688;2023-01-29T04:37:22;1.60;99.90
42245;DHT22;27912;51.828;5.688;2023-01-29T04:40:02;1.60;99.90
42245;DHT22;27912;51.828;5.688;2023-01-29T04:42:42;1.70;99.90
42245;DHT22;27912;51.828;5.688;2023-01-29T04:45:21;1.70;99.90
42245;DHT22;27912;51.828;5.688;2023-01-29T04:50:27;1.60;99.90
42245;DHT22;27912;51.828;5.688;2023-01-29T04:55:59;1.70;99.90
42245;DHT22;27912;51.828;5.688;2023-01-29T04:58:32;1.70;99.90
42245;DHT22;27912;51.828;5.688;2023-01-29T05:00:58;1.70;99.90
42245;DHT22;27912;51.828;5.688;2023-01-29T05:03:26;1.70;99.90
42245;DHT22;27912;51.828;5.688;2023-01-29T05:05:53;1.70;99.90
42245;DHT22;27912;51.828;5.688;2023-01-29T05:08:22;1.80;99.90
42245;DHT22;27912;51.828;5.688;2023-01-29T05:10:50;1.80;99.90
42245;DHT22;27912;51.828;5.688;2023-01-29T05:13:18;1.80;99.90
42245;DHT22;27912;51.828;5.688;2023-01-29T05:16:04;1.80;99.90
42245;DHT22;27912;51.828;5.688;2023-01-29T05:18:32;1.90;99.90
42245;DHT22;27912;51.828;5.688;2023-01-29T05:21:02;1.90;99.90
42245;DHT22;27912;51.828;5.688;2023-01-29T05:23:29;1.90;99.90
42245;DHT22;27912;51.828;5.688;2023-01-29T05:25:55;1.90;99.90
42245;DHT22;27912;51.828;5.688;2023-01-29T05:28:21;1.90;99.90
42245;DHT22;27912;51.828;5.688;2023-01-29T05:30:49;1.90;99.90
42245;DHT22;27912;51.828;5.688;2023-01-29T05:33:18;2.00;99.90
42245;DHT22;27912;51.828;5.688;2023-01-29T05:35:44;1.90;99.90
42245;DHT22;27912;51.828;5.688;2023-01-29T05:38:09;1.90;99.90
42245;DHT22;27912;51.828;5.688;2023-01-29T05:40:35;1.90;99.90
42245;DHT22;27912;51.828;5.688;2023-01-29T05:43:00;1.90;99.90
42245;DHT22;27912;51.828;5.688;2023-01-29T05:45:26;1.90;99.90
42245;DHT22;27912;51.828;5.688;2023-01-29T05:47:59;2.00;99.90
42245;DHT22;27912;51.828;5.688;2023-01-29T05:50:26;1.90;99.90
42245;DHT22;27912;51.828;5.688;2023-01-29T05:52:58;1.90;99.90
42245;DHT22;27912;51.828;5.688;2023-01-29T05:55:24;2.00;99.90
42245;DHT22;27912;51.828;5.688;2023-01-29T05:57:50;2.00;99.90
42245;DHT22;27912;51.828;5.688;2023-01-29T06:00:16;2.00;99.90
42245;DHT22;27912;51.828;5.688;2023-01-29T06:02:42;2.00;99.90
42245;DHT22;27912;51.828;5.688;2023-01-29T06:05:08;2.00;99.90
42245;DHT22;27912;51.828;5.688;2023-01-29T06:07:33;1.90;99.90
42245;DHT22;27912;51.828;5.688;2023-01-29T06:09:59;2.00;99.90
42245;DHT22;27912;51.828;5.688;2023-01-29T06:12:26;2.00;99.90
42245;DHT22;27912;51.828;5.688;2023-01-29T06:14:52;2.00;99.90
42245;DHT22;27912;51.828;5.688;2023-01-29T06:17:17;2.00;99.90
42245;DHT22;27912;51.828;5.688;2023-01-29T06:19:43;2.00;99.90
42245;DHT22;27912;51.828;5.688;2023-01-29T06:22:08;2.00;99.90
42245;DHT22;27912;51.828;5.688;2023-01-29T06:24:34;2.00;99.90
42245;DHT22;27912;51.828;5.688;2023-01-29T06:26:59;2.00;99.90
42245;DHT22;27912;51.828;5.688;2023-01-29T06:29:25;2.00;99.90
42245;DHT22;27912;51.828;5.688;2023-01-29T06:31:51;2.00;99.90
42245;DHT22;27912;51.828;5.688;2023-01-29T06:34:16;2.00;99.90
42245;DHT22;27912;51.828;5.688;2023-01-29T06:36:42;2.00;99.90
42245;DHT22;27912;51.828;5.688;2023-01-29T06:39:08;2.00;99.90
42245;DHT22;27912;51.828;5.688;2023-01-29T06:41:34;2.10;99.90
42245;DHT22;27912;51.828;5.688;2023-01-29T06:43:59;2.10;99.90
42245;DHT22;27912;51.828;5.688;2023-01-29T06:46:25;2.10;99.90
42245;DHT22;27912;51.828;5.688;2023-01-29T06:48:51;2.10;99.90
42245;DHT22;27912;51.828;5.688;2023-01-29T06:51:16;2.10;99.90
42245;DHT22;27912;51.828;5.688;2023-01-29T06:53:42;2.10;99.90
42245;DHT22;27912;51.828;5.688;2023-01-29T06:56:07;2.10;99.90
42245;DHT22;27912;51.828;5.688;2023-01-29T06:58:36;2.20;99.90
42245;DHT22;27912;51.828;5.688;2023-01-29T07:01:07;2.20;99.90
42245;DHT22;27912;51.828;5.688;2023-01-29T07:03:33;2.20;99.90
42245;DHT22;27912;51.828;5.688;2023-01-29T07:05:58;2.20;99.90
42245;DHT22;27912;51.828;5.688;2023-01-29T07:08:24;2.20;99.90
42245;DHT22;27912;51.828;5.688;2023-01-29T07:10:50;2.20;99.90
42245;DHT22;27912;51.828;5.688;2023-01-29T07:13:15;2.20;99.90
42245;DHT22;27912;51.828;5.688;2023-01-29T07:15:41;2.20;99.90
42245;DHT22;27912;51.828;5.688;2023-01-29T07:18:07;2.20;99.90
42245;DHT22;27912;51.828;5.688;2023-01-29T07:20:38;2.30;99.90
42245;DHT22;27912;51.828;5.688;2023-01-29T07:23:05;2.30;99.90
42245;DHT22;27912;51.828;5.688;2023-01-29T07:25:32;2.30;99.90
42245;DHT22;27912;51.828;5.688;2023-01-29T07:28:02;2.30;99.90
42245;DHT22;27912;51.828;5.688;2023-01-29T07:30:27;2.30;99.90
42245;DHT22;27912;51.828;5.688;2023-01-29T07:32:53;2.30;99.90
42245;DHT22;27912;51.828;5.688;2023-01-29T07:35:19;2.30;99.90
42245;DHT22;27912;51.828;5.688;2023-01-29T07:37:48;2.40;99.90
42245;DHT22;27912;51.828;5.688;2023-01-29T07:40:14;2.40;99.90
42245;DHT22;27912;51.828;5.688;2023-01-29T07:42:39;2.40;99.90
42245;DHT22;27912;51.828;5.688;2023-01-29T07:45:07;2.30;99.90
42245;DHT22;27912;51.828;5.688;2023-01-29T07:47:33;2.40;99.90
42245;DHT22;27912;51.828;5.688;2023-01-29T07:49:59;2.40;99.90
42245;DHT22;27912;51.828;5.688;2023-01-29T07:52:24;2.30;99.90
42245;DHT22;27912;51.828;5.688;2023-01-29T07:54:50;2.40;99.90
42245;DHT22;27912;51.828;5.688;2023-01-29T07:57:16;2.40;99.90
42245;DHT22;27912;51.828;5.688;2023-01-29T07:59:41;2.40;99.90
42245;DHT22;27912;51.828;5.688;2023-01-29T08:02:08;2.40;99.90
42245;DHT22;27912;51.828;5.688;2023-01-29T08:04:34;2.40;99.90
42245;DHT22;27912;51.828;5.688;2023-01-29T08:07:00;2.40;99.90
42245;DHT22;27912;51.828;5.688;2023-01-29T08:09:25;2.40;99.90
42245;DHT22;27912;51.828;5.688;2023-01-29T08:11:51;2.50;99.90
42245;DHT22;27912;51.828;5.688;2023-01-29T08:14:16;2.40;99.90
42245;DHT22;27912;51.828;5.688;2023-01-29T08:16:42;2.50;99.90
42245;DHT22;27912;51.828;5.688;2023-01-29T08:19:08;2.50;99.90
42245;DHT22;27912;51.828;5.688;2023-01-29T08:21:33;2.50;99.90
42245;DHT22;27912;51.828;5.688;2023-01-29T08:23:59;2.50;99.90
42245;DHT22;27912;51.828;5.688;2023-01-29T08:26:24;2.50;99.90
42245;DHT22;27912;51.828;5.688;2023-01-29T08:28:51;2.50;99.90
42245;DHT22;27912;51.828;5.688;2023-01-29T08:31:18;2.50;99.90
42245;DHT22;27912;51.828;5.688;2023-01-29T08:33:46;2.50;99.90
42245;DHT22;27912;51.828;5.688;2023-01-29T08:36:12;2.60;99.90
42245;DHT22;27912;51.828;5.688;2023-01-29T08:38:39;2.60;99.90
42245;DHT22;27912;51.828;5.688;2023-01-29T08:41:05;2.60;99.90
42245;DHT22;27912;51.828;5.688;2023-01-29T08:43:31;2.60;99.90
42245;DHT22;27912;51.828;5.688;2023-01-29T08:45:57;2.60;99.90
42245;DHT22;27912;51.828;5.688;2023-01-29T08:48:23;2.70;99.90
42245;DHT22;27912;51.828;5.688;2023-01-29T08:50:49;2.70;99.90
42245;DHT22;27912;51.828;5.688;2023-01-29T08:53:15;2.80;99.90
42245;DHT22;27912;51.828;5.688;2023-01-29T08:55:40;2.80;99.90
42245;DHT22;27912;51.828;5.688;2023-01-29T08:58:07;2.80;99.90
42245;DHT22;27912;51.828;5.688;2023-01-29T09:00:33;2.80;99.90
42245;DHT22;27912;51.828;5.688;2023-01-29T09:02:59;2.90;99.90
42245;DHT22;27912;51.828;5.688;2023-01-29T09:05:26;2.90;99.90
42245;DHT22;27912;51.828;5.688;2023-01-29T09:07:52;2.90;99.90
42245;DHT22;27912;51.828;5.688;2023-01-29T09:10:18;2.90;99.90
42245;DHT22;27912;51.828;5.688;2023-01-29T09:12:43;2.90;99.90
42245;DHT22;27912;51.828;5.688;2023-01-29T09:15:09;2.90;99.90
42245;DHT22;27912;51.828;5.688;2023-01-29T09:17:35;3.00;99.90
42245;DHT22;27912;51.828;5.688;2023-01-29T09:20:01;3.00;99.90
42245;DHT22;27912;51.828;5.688;2023-01-29T09:22:27;3.00;99.90
42245;DHT22;27912;51.828;5.688;2023-01-29T09:24:52;3.00;99.90
42245;DHT22;27912;51.828;5.688;2023-01-29T09:27:18;3.10;99.90
42245;DHT22;27912;51.828;5.688;2023-01-29T09:29:43;3.10;99.90
42245;DHT22;27912;51.828;5.688;2023-01-29T09:32:09;3.10;99.90
42245;DHT22;27912;51.828;5.688;2023-01-29T09:34:35;3.10;99.90
42245;DHT22;27912;51.828;5.688;2023-01-29T09:37:00;3.10;99.90
42245;DHT22;27912;51.828;5.688;2023-01-29T09:39:26;3.20;99.90
42245;DHT22;27912;51.828;5.688;2023-01-29T09:42:16;3.20;99.90
42245;DHT22;27912;51.828;5.688;2023-01-29T09:47:59;3.30;99.90
42245;DHT22;27912;51.828;5.688;2023-01-29T09:50:34;3.30;99.90
42245;DHT22;27912;51.828;5.688;2023-01-29T09:53:19;3.30;99.90
42245;DHT22;27912;51.828;5.688;2023-01-29T09:56:07;3.30;99.90
42245;DHT22;27912;51.828;5.688;2023-01-29T09:58:37;3.30;99.90
42245;DHT22;27912;51.828;5.688;2023-01-29T10:15:04;3.40;99.90
42245;DHT22;27912;51.828;5.688;2023-01-29T10:23:20;3.50;99.90
42245;DHT22;27912;51.828;5.688;2023-01-29T10:25:47;3.50;99.90
42245;DHT22;27912;51.828;5.688;2023-01-29T10:31:17;3.60;99.90
42245;DHT22;27912;51.828;5.688;2023-01-29T10:33:49;3.60;99.90
42245;DHT22;27912;51.828;5.688;2023-01-29T10:36:25;3.60;99.90
42245;DHT22;27912;51.828;5.688;2023-01-29T10:38:51;3.70;99.90
42245;DHT22;27912;51.828;5.688;2023-01-29T10:41:42;3.70;99.90
42245;DHT22;27912;51.828;5.688;2023-01-29T10:45:28;3.80;99.90
42245;DHT22;27912;51.828;5.688;2023-01-29T10:57:51;4.00;99.90
42245;DHT22;27912;51.828;5.688;2023-01-29T11:00:38;4.00;99.90
42245;DHT22;27912;51.828;5.688;2023-01-29T11:03:16;4.10;99.90
42245;DHT22;27912;51.828;5.688;2023-01-29T11:06:15;4.10;99.90
42245;DHT22;27912;51.828;5.688;2023-01-29T11:08:53;4.10;99.90
42245;DHT22;27912;51.828;5.688;2023-01-29T11:11:23;4.10;99.90
42245;DHT22;27912;51.828;5.688;2023-01-29T11:14:04;4.20;99.90
42245;DHT22;27912;51.828;5.688;2023-01-29T11:16:46;4.20;99.90
42245;DHT22;27912;51.828;5.688;2023-01-29T11:19:13;4.30;99.90
42245;DHT22;27912;51.828;5.688;2023-01-29T11:21:51;4.40;99.90
42245;DHT22;27912;51.828;5.688;2023-01-29T11:24:17;4.40;99.90
42245;DHT22;27912;51.828;5.688;2023-01-29T11:26:45;4.40;99.90
42245;DHT22;27912;51.828;5.688;2023-01-29T11:31:58;4.50;99.90
42245;DHT22;27912;51.828;5.688;2023-01-29T11:34:25;4.50;99.90
42245;DHT22;27912;51.828;5.688;2023-01-29T11:37:00;4.50;99.90
42245;DHT22;27912;51.828;5.688;2023-01-29T11:39:27;4.50;99.90
42245;DHT22;27912;51.828;5.688;2023-01-29T11:41:55;4.60;99.90
42245;DHT22;27912;51.828;5.688;2023-01-29T11:44:27;4.60;99.90
42245;DHT22;27912;51.828;5.688;2023-01-29T11:46:53;4.60;99.90
42245;DHT22;27912;51.828;5.688;2023-01-29T11:49:38;4.60;99.90
42245;DHT22;27912;51.828;5.688;2023-01-29T11:52:06;4.60;99.90
42245;DHT22;27912;51.828;5.688;2023-01-29T11:54:57;4.60;99.90
42245;DHT22;27912;51.828;5.688;2023-01-29T11:57:32;4.60;99.90
42245;DHT22;27912;51.828;5.688;2023-01-29T12:00:05;4.60;99.90
42245;DHT22;27912;51.828;5.688;2023-01-29T12:02:36;4.60;99.90
42245;DHT22;27912;51.828;5.688;2023-01-29T12:05:06;4.60;99.90
42245;DHT22;27912;51.828;5.688;2023-01-29T12:07:40;4.50;99.90
42245;DHT22;27912;51.828;5.688;2023-01-29T12:10:36;4.60;99.90
42245;DHT22;27912;51.828;5.688;2023-01-29T12:13:21;4.50;99.90
42245;DHT22;27912;51.828;5.688;2023-01-29T12:15:49;4.50;99.90
42245;DHT22;27912;51.828;5.688;2023-01-29T12:18:37;4.50;99.90
42245;DHT22;27912;51.828;5.688;2023-01-29T12:24:23;4.50;99.90
42245;DHT22;27912;51.828;5.688;2023-01-29T12:29:55;4.50;99.90
42245;DHT22;27912;51.828;5.688;2023-01-29T12:36:13;4.40;99.90
42245;DHT22;27912;51.828;5.688;2023-01-29T12:38:22;4.40;99.90
42245;DHT22;27912;51.828;5.688;2023-01-29T12:43:34;4.40;99.90
42245;DHT22;27912;51.828;5.688;2023-01-29T12:46:06;4.40;99.90
42245;DHT22;27912;51.828;5.688;2023-01-29T12:48:33;4.40;99.90
42245;DHT22;27912;51.828;5.688;2023-01-29T12:51:09;4.30;99.90
42245;DHT22;27912;51.828;5.688;2023-01-29T12:53:37;4.30;99.90
42245;DHT22;27912;51.828;5.688;2023-01-29T12:56:14;4.30;99.90
42245;DHT22;27912;51.828;5.688;2023-01-29T12:58:46;4.30;99.90
42245;DHT22;27912;51.828;5.688;2023-01-29T13:01:44;4.30;99.90
42245;DHT22;27912;51.828;5.688;2023-01-29T13:04:18;4.30;99.90
42245;DHT22;27912;51.828;5.688;2023-01-29T13:06:55;4.30;99.90
42245;DHT22;27912;51.828;5.688;2023-01-29T13:09:26;4.30;99.90
42245;DHT22;27912;51.828;5.688;2023-01-29T13:12:01;4.30;99.90
42245;DHT22;27912;51.828;5.688;2023-01-29T13:17:55;4.40;99.90
42245;DHT22;27912;51.828;5.688;2023-01-29T13:19:58;4.40;99.90
42245;DHT22;27912;51.828;5.688;2023-01-29T13:22:33;4.40;99.90
42245;DHT22;27912;51.828;5.688;2023-01-29T13:25:00;4.40;99.90
42245;DHT22;27912;51.828;5.688;2023-01-29T13:27:28;4.40;99.90
42245;DHT22;27912;51.828;5.688;2023-01-29T13:29:55;4.40;99.90
42245;DHT22;27912;51.828;5.688;2023-01-29T13:32:33;4.40;99.90
42245;DHT22;27912;51.828;5.688;2023-01-29T13:35:01;4.50;99.90
42245;DHT22;27912;51.828;5.688;2023-01-29T13:37:36;4.40;99.90
42245;DHT22;27912;51.828;5.688;2023-01-29T13:40:17;4.40;99.90
42245;DHT22;27912;51.828;5.688;2023-01-29T13:42:46;4.40;99.90
42245;DHT22;27912;51.828;5.688;2023-01-29T13:45:25;4.40;99.90
42245;DHT22;27912;51.828;5.688;2023-01-29T13:48:26;4.40;99.90
42245;DHT22;27912;51.828;5.688;2023-01-29T13:50:55;4.40;99.90
42245;DHT22;27912;51.828;5.688;2023-01-29T13:53:28;4.40;99.90
42245;DHT22;27912;51.828;5.688;2023-01-29T13:55:53;4.40;99.90
42245;DHT22;27912;51.828;5.688;2023-01-29T14:01:00;4.30;99.90
42245;DHT22;27912;51.828;5.688;2023-01-29T14:03:32;4.30;99.90
42245;DHT22;27912;51.828;5.688;2023-01-29T14:05:59;4.30;99.90
42245;DHT22;27912;51.828;5.688;2023-01-29T14:13:37;4.50;99.90
42245;DHT22;27912;51.828;5.688;2023-01-29T14:16:25;4.50;99.90
42245;DHT22;27912;51.828;5.688;2023-01-29T14:18:56;4.60;99.90
42245;DHT22;27912;51.828;5.688;2023-01-29T14:21:25;4.60;99.90
42245;DHT22;27912;51.828;5.688;2023-01-29T14:23:57;4.60;99.90
42245;DHT22;27912;51.828;5.688;2023-01-29T14:31:42;4.60;99.90
42245;DHT22;27912;51.828;5.688;2023-01-29T14:34:30;4.60;99.90
42245;DHT22;27912;51.828;5.688;2023-01-29T14:37:02;4.60;99.90
42245;DHT22;27912;51.828;5.688;2023-01-29T14:39:47;4.60;99.90
42245;DHT22;27912;51.828;5.688;2023-01-29T14:42:31;4.60;99.90
42245;DHT22;27912;51.828;5.688;2023-01-29T14:47:54;4.60;99.90
42245;DHT22;27912;51.828;5.688;2023-01-29T14:56:16;4.70;99.90
42245;DHT22;27912;51.828;5.688;2023-01-29T14:58:45;4.60;99.90
42245;DHT22;27912;51.828;5.688;2023-01-29T15:01:54;4.60;99.90
42245;DHT22;27912;51.828;5.688;2023-01-29T15:04:29;4.70;99.90
42245;DHT22;27912;51.828;5.688;2023-01-29T15:07:02;4.70;99.90
42245;DHT22;27912;51.828;5.688;2023-01-29T15:12:47;4.70;99.90
42245;DHT22;27912;51.828;5.688;2023-01-29T15:15:24;4.70;99.90
42245;DHT22;27912;51.828;5.688;2023-01-29T15:18:11;4.70;99.90
42245;DHT22;27912;51.828;5.688;2023-01-29T15:20:39;4.80;99.90
42245;DHT22;27912;51.828;5.688;2023-01-29T15:23:27;4.80;99.90
42245;DHT22;27912;51.828;5.688;2023-01-29T15:25:56;4.80;99.90
42245;DHT22;27912;51.828;5.688;2023-01-29T15:28:23;4.70;99.90
42245;DHT22;27912;51.828;5.688;2023-01-29T15:30:53;4.60;99.90
42245;DHT22;27912;51.828;5.688;2023-01-29T15:33:20;4.60;99.90
42245;DHT22;27912;51.828;5.688;2023-01-29T15:35:46;4.60;99.90
42245;DHT22;27912;51.828;5.688;2023-01-29T15:38:20;4.50;99.90
42245;DHT22;27912;51.828;5.688;2023-01-29T15:40:58;4.40;99.90
42245;DHT22;27912;51.828;5.688;2023-01-29T15:43:28;4.40;99.90
42245;DHT22;27912;51.828;5.688;2023-01-29T15:46:15;4.40;99.90
42245;DHT22;27912;51.828;5.688;2023-01-29T15:48:44;4.40;99.90
42245;DHT22;27912;51.828;5.688;2023-01-29T15:51:19;4.30;99.90
42245;DHT22;27912;51.828;5.688;2023-01-29T15:54:09;4.30;99.90
42245;DHT22;27912;51.828;5.688;2023-01-29T15:56:43;4.30;99.90
42245;DHT22;27912;51.828;5.688;2023-01-29T15:59:21;4.30;99.90
42245;DHT22;27912;51.828;5.688;2023-01-29T16:01:47;4.30;99.90
42245;DHT22;27912;51.828;5.688;2023-01-29T16:04:26;4.30;99.90
42245;DHT22;27912;51.828;5.688;2023-01-29T16:06:57;4.30;99.90
42245;DHT22;27912;51.828;5.688;2023-01-29T16:09:25;4.20;99.90
42245;DHT22;27912;51.828;5.688;2023-01-29T16:11:52;4.20;99.90
42245;DHT22;27912;51.828;5.688;2023-01-29T16:14:21;4.20;99.90
42245;DHT22;27912;51.828;5.688;2023-01-29T16:16:49;4.20;99.90
42245;DHT22;27912;51.828;5.688;2023-01-29T16:19:42;4.20;99.90
42245;DHT22;27912;51.828;5.688;2023-01-29T16:22:07;4.20;99.90
42245;DHT22;27912;51.828;5.688;2023-01-29T16:24:34;4.20;99.90
42245;DHT22;27912;51.828;5.688;2023-01-29T16:27:11;4.20;99.90
42245;DHT22;27912;51.828;5.688;2023-01-29T16:29:37;4.20;99.90
42245;DHT22;27912;51.828;5.688;2023-01-29T16:32:04;4.20;99.90
42245;DHT22;27912;51.828;5.688;2023-01-29T16:34:37;4.20;99.90
42245;DHT22;27912;51.828;5.688;2023-01-29T16:37:03;4.20;99.90
42245;DHT22;27912;51.828;5.688;2023-01-29T16:39:37;4.20;99.90
42245;DHT22;27912;51.828;5.688;2023-01-29T16:44:58;4.40;99.90
42245;DHT22;27912;51.828;5.688;2023-01-29T16:47:38;4.40;99.90
42245;DHT22;27912;51.828;5.688;2023-01-29T16:50:31;4.40;99.90
42245;DHT22;27912;51.828;5.688;2023-01-29T16:53:17;4.40;99.90
42245;DHT22;27912;51.828;5.688;2023-01-29T16:55:46;4.40;99.90
42245;DHT22;27912;51.828;5.688;2023-01-29T16:58:15;4.30;99.90
42245;DHT22;27912;51.828;5.688;2023-01-29T17:00:45;4.30;99.90
42245;DHT22;27912;51.828;5.688;2023-01-29T17:03:12;4.30;99.90
42245;DHT22;27912;51.828;5.688;2023-01-29T17:05:39;4.30;99.90
42245;DHT22;27912;51.828;5.688;2023-01-29T17:08:05;4.30;99.90
42245;DHT22;27912;51.828;5.688;2023-01-29T17:10:32;4.30;99.90
42245;DHT22;27912;51.828;5.688;2023-01-29T17:13:05;4.30;99.90
42245;DHT22;27912;51.828;5.688;2023-01-29T17:15:45;4.30;99.90
42245;DHT22;27912;51.828;5.688;2023-01-29T17:18:17;4.30;99.90
42245;DHT22;27912;51.828;5.688;2023-01-29T17:20:43;4.30;99.90
42245;DHT22;27912;51.828;5.688;2023-01-29T17:23:08;4.30;99.90
42245;DHT22;27912;51.828;5.688;2023-01-29T17:25:34;4.20;99.90
42245;DHT22;27912;51.828;5.688;2023-01-29T17:28:01;4.10;99.90
42245;DHT22;27912;51.828;5.688;2023-01-29T17:30:30;4.00;99.90
42245;DHT22;27912;51.828;5.688;2023-01-29T17:32:58;3.90;99.90
42245;DHT22;27912;51.828;5.688;2023-01-29T17:35:23;3.90;99.90
42245;DHT22;27912;51.828;5.688;2023-01-29T17:37:49;3.80;99.90
42245;DHT22;27912;51.828;5.688;2023-01-29T17:40:38;3.80;99.90
42245;DHT22;27912;51.828;5.688;2023-01-29T17:43:04;3.80;99.90
42245;DHT22;27912;51.828;5.688;2023-01-29T17:45:31;3.80;99.90
42245;DHT22;27912;51.828;5.688;2023-01-29T17:47:57;3.80;99.90
42245;DHT22;27912;51.828;5.688;2023-01-29T17:50:26;3.80;99.90
42245;DHT22;27912;51.828;5.688;2023-01-29T17:52:52;3.80;99.90
42245;DHT22;27912;51.828;5.688;2023-01-29T17:55:18;3.90;99.90
42245;DHT22;27912;51.828;5.688;2023-01-29T17:57:44;3.90;99.90
42245;DHT22;27912;51.828;5.688;2023-01-29T18:00:20;3.90;99.90
42245;DHT22;27912;51.828;5.688;2023-01-29T18:02:46;3.90;99.90
42245;DHT22;27912;51.828;5.688;2023-01-29T18:05:13;3.90;99.90
42245;DHT22;27912;51.828;5.688;2023-01-29T18:07:40;3.90;99.90